Time;durP1;ratioP1;P1;durP2;ratioP2;P2;SDS_P1;SDS_P2;PMS_P1;PMS_P2;Temp;Humidity;BMP_temperature;BMP_pressure;BME280_temperature;BME280_humidity;BME280_pressure;Samples;Min_cycle;Max_cycle;Signal;HPM_P1;HPM_P2
2023/03/05 00:02:01;;;;;;;7.15;1.80;;;;;;;;;;5088373;28;20047;-73
2023/03/05 00:04:35;;;;;;;6.50;2.00;;;;;;;;;;5088806;28;20051;-73
2023/03/05 00:07:08;;;;;;;7.15;1.90;;;;;;;;;;5087346;28;20048;-73
2023/03/05 00:09:39;;;;;;;7.43;2.17;;;;;;;;;;5088218;28;20040;-74
2023/03/05 00:12:09;;;;;;;7.70;2.03;;;;;;;;;;5087643;28;20047;-73
2023/03/05 00:14:40;;;;;;;7.72;2.88;;;;;;;;;;5088404;28;20040;-73
2023/03/05 00:17:12;;;;;;;2.75;2.17;;;;;;;;;;5086662;28;20058;-72
2023/03/05 00:19:43;;;;;;;6.13;1.95;;;;;;;;;;5088016;28;20056;-73
2023/03/05 00:22:12;;;;;;;11.05;2.80;;;;;;;;;;5113340;27;20628;-72
2023/03/05 00:24:43;;;;;;;4.55;2.42;;;;;;;;;;5123803;27;20044;-74
2023/03/05 00:27:13;;;;;;;7.35;2.40;;;;;;;;;;5117610;27;20058;-73
2023/03/05 00:29:45;;;;;;;8.15;2.42;;;;;;;;;;5117359;27;20497;-73
2023/03/05 00:32:15;;;;;;;5.82;2.53;;;;;;;;;;5108727;27;20054;-74
2023/03/05 00:34:48;;;;;;;8.15;2.28;;;;;;;;;;5104381;27;20429;-76
2023/03/05 00:37:19;;;;;;;6.15;2.65;;;;;;;;;;5106359;27;20043;-74
2023/03/05 00:39:49;;;;;;;8.05;2.55;;;;;;;;;;5108094;27;20067;-74
2023/03/05 00:42:19;;;;;;;5.82;2.53;;;;;;;;;;5117247;27;20035;-74
2023/03/05 00:44:53;;;;;;;7.63;3.38;;;;;;;;;;5114457;27;20043;-74
2023/03/05 00:47:23;;;;;;;8.15;3.97;;;;;;;;;;5116364;27;20394;-73
2023/03/05 00:49:53;;;;;;;4.82;3.28;;;;;;;;;;5116108;27;20048;-74
2023/03/05 00:52:23;;;;;;;11.95;2.92;;;;;;;;;;5116640;27;20043;-74
2023/03/05 00:54:54;;;;;;;10.27;3.83;;;;;;;;;;5111623;27;20043;-73
2023/03/05 00:57:27;;;;;;;6.25;3.65;;;;;;;;;;5111675;27;20047;-73
2023/03/05 00:59:57;;;;;;;4.85;3.05;;;;;;;;;;5118707;27;20055;-74
2023/03/05 01:02:27;;;;;;;6.93;3.13;;;;;;;;;;5117529;27;20441;-74
2023/03/05 01:04:58;;;;;;;8.95;3.42;;;;;;;;;;5125366;27;20441;-71
2023/03/05 01:07:29;;;;;;;14.38;3.45;;;;;;;;;;5102146;27;20460;-76
2023/03/05 01:10:00;;;;;;;7.35;3.50;;;;;;;;;;5113112;27;20047;-74
2023/03/05 01:12:30;;;;;;;8.75;4.03;;;;;;;;;;5110370;27;20055;-74
2023/03/05 01:15:01;;;;;;;7.28;3.33;;;;;;;;;;5113817;27;20054;-74
2023/03/05 01:17:32;;;;;;;8.93;3.30;;;;;;;;;;5097088;27;20059;-74
2023/03/05 01:20:04;;;;;;;9.60;3.17;;;;;;;;;;5105315;28;20054;-73
2023/03/05 01:22:34;;;;;;;11.55;3.28;;;;;;;;;;5105451;28;20059;-73
2023/03/05 01:25:05;;;;;;;6.45;3.17;;;;;;;;;;5111328;27;20516;-73
2023/03/05 01:27:35;;;;;;;9.30;3.70;;;;;;;;;;5124959;27;20054;-72
2023/03/05 01:30:07;;;;;;;11.88;4.40;;;;;;;;;;5117822;27;20043;-73
2023/03/05 01:32:39;;;;;;;9.10;3.75;;;;;;;;;;5114658;27;20516;-73
2023/03/05 01:35:15;;;;;;;8.65;3.55;;;;;;;;;;5115528;27;20509;-74
2023/03/05 01:37:46;;;;;;;15.57;3.67;;;;;;;;;;5118364;27;20051;-73
2023/03/05 01:40:26;;;;;;;7.50;4.18;;;;;;;;;;5117038;27;20399;-73
2023/03/05 01:43:06;;;;;;;7.65;3.90;;;;;;;;;;5112954;27;20077;-74
2023/03/05 01:45:39;;;;;;;6.82;3.65;;;;;;;;;;5113112;27;20051;-74
2023/03/05 01:48:10;;;;;;;7.03;4.10;;;;;;;;;;5113216;27;20039;-75
2023/03/05 01:50:41;;;;;;;14.85;3.78;;;;;;;;;;5115610;27;20039;-74
2023/03/05 01:53:11;;;;;;;13.05;4.05;;;;;;;;;;5111215;27;20046;-74
2023/03/05 01:55:43;;;;;;;7.75;4.30;;;;;;;;;;5116287;27;20046;-74
2023/03/05 01:58:13;;;;;;;15.70;4.65;;;;;;;;;;5095743;28;20047;-74
2023/03/05 02:00:49;;;;;;;8.48;4.53;;;;;;;;;;5114045;27;20058;-75
2023/03/05 02:03:22;;;;;;;12.38;4.47;;;;;;;;;;5108457;27;20050;-75
2023/03/05 02:05:55;;;;;;;20.20;4.78;;;;;;;;;;5105636;28;20062;-78
2023/03/05 02:08:25;;;;;;;14.02;4.10;;;;;;;;;;5106976;28;20047;-76
2023/03/05 02:10:56;;;;;;;10.30;3.75;;;;;;;;;;5106842;28;20424;-77
2023/03/05 02:13:31;;;;;;;8.02;2.85;;;;;;;;;;5100560;28;20051;-77
2023/03/05 02:16:03;;;;;;;3.85;2.10;;;;;;;;;;5104261;28;20082;-77
2023/03/05 02:18:34;;;;;;;8.25;2.13;;;;;;;;;;5111429;28;20055;-76
2023/03/05 02:21:10;;;;;;;4.85;2.15;;;;;;;;;;5110775;28;20048;-78
2023/03/05 02:23:41;;;;;;;5.18;2.55;;;;;;;;;;5112987;28;20054;-75
2023/03/05 02:26:12;;;;;;;4.88;2.25;;;;;;;;;;5115515;28;20045;-75
2023/03/05 02:28:51;;;;;;;3.55;2.22;;;;;;;;;;5116169;28;20039;-74
2023/03/05 02:31:23;;;;;;;4.28;2.28;;;;;;;;;;5115535;28;20063;-76
2023/03/05 02:33:55;;;;;;;2.90;1.95;;;;;;;;;;5116397;28;20052;-73
2023/03/05 02:36:26;;;;;;;2.13;1.73;;;;;;;;;;5111101;28;20079;-74
2023/03/05 02:38:57;;;;;;;4.63;1.83;;;;;;;;;;5113581;28;20050;-75
2023/03/05 02:41:28;;;;;;;3.65;1.63;;;;;;;;;;5109481;28;20052;-74
2023/03/05 02:44:00;;;;;;;3.42;1.52;;;;;;;;;;5113140;28;20051;-75
2023/03/05 02:46:31;;;;;;;5.70;1.65;;;;;;;;;;5112451;28;20054;-74
2023/03/05 02:49:02;;;;;;;7.40;1.73;;;;;;;;;;5110688;28;20552;-76
2023/03/05 02:51:32;;;;;;;5.40;1.95;;;;;;;;;;5118009;28;20061;-76
2023/03/05 02:54:04;;;;;;;4.32;1.40;;;;;;;;;;5125098;28;20055;-76
2023/03/05 02:56:34;;;;;;;2.03;1.50;;;;;;;;;;5127245;28;20047;-76
2023/03/05 02:59:04;;;;;;;2.65;1.67;;;;;;;;;;5124383;28;20077;-75
2023/03/05 03:01:34;;;;;;;4.32;2.10;;;;;;;;;;5124145;28;20043;-74
2023/03/05 03:04:07;;;;;;;2.42;1.65;;;;;;;;;;5124788;28;20051;-75
2023/03/05 03:06:38;;;;;;;5.60;1.73;;;;;;;;;;5127637;28;20046;-75
2023/03/05 03:09:08;;;;;;;3.38;2.00;;;;;;;;;;5126782;28;20055;-75
2023/03/05 03:11:38;;;;;;;6.10;2.05;;;;;;;;;;5130348;27;20043;-76
2023/03/05 03:14:09;;;;;;;4.05;1.90;;;;;;;;;;5131030;27;20046;-76
2023/03/05 03:16:41;;;;;;;2.85;1.80;;;;;;;;;;5130631;27;20402;-76
2023/03/05 03:19:11;;;;;;;2.83;1.90;;;;;;;;;;5130544;27;20389;-74
2023/03/05 03:21:42;;;;;;;2.75;2.00;;;;;;;;;;5130678;27;20359;-74
2023/03/05 03:24:12;;;;;;;3.45;1.77;;;;;;;;;;5130670;27;20407;-74
2023/03/05 03:26:43;;;;;;;9.50;2.30;;;;;;;;;;5130241;27;20501;-73
2023/03/05 03:29:13;;;;;;;5.75;2.33;;;;;;;;;;5129497;27;20043;-73
2023/03/05 03:31:45;;;;;;;7.72;2.35;;;;;;;;;;5129714;27;20047;-73
2023/03/05 03:34:16;;;;;;;3.75;2.13;;;;;;;;;;5130063;27;20062;-73
2023/03/05 03:36:49;;;;;;;4.60;2.00;;;;;;;;;;5130176;27;20054;-73
2023/03/05 03:39:22;;;;;;;5.85;2.60;;;;;;;;;;5130411;27;20043;-73
2023/03/05 03:41:55;;;;;;;6.78;2.28;;;;;;;;;;5128805;27;20051;-73
2023/03/05 03:44:25;;;;;;;4.03;1.85;;;;;;;;;;5129910;27;20047;-73
2023/03/05 03:46:56;;;;;;;5.13;1.77;;;;;;;;;;5129800;27;20054;-73
2023/03/05 03:49:27;;;;;;;3.55;1.30;;;;;;;;;;5128153;27;20085;-73
2023/03/05 03:51:57;;;;;;;9.70;1.85;;;;;;;;;;5129737;27;20051;-73
2023/03/05 03:54:28;;;;;;;4.93;1.77;;;;;;;;;;5129350;27;20043;-73
2023/03/05 03:56:58;;;;;;;1.90;1.58;;;;;;;;;;5129348;27;20051;-73
2023/03/05 03:59:28;;;;;;;1.52;1.40;;;;;;;;;;5130133;27;20046;-73
2023/03/05 04:01:58;;;;;;;7.15;1.63;;;;;;;;;;5129306;27;20053;-73
2023/03/05 04:04:29;;;;;;;6.90;2.00;;;;;;;;;;5129514;27;20108;-74
2023/03/05 04:07:00;;;;;;;4.75;1.67;;;;;;;;;;5129914;27;20058;-74
2023/03/05 04:09:31;;;;;;;6.07;2.10;;;;;;;;;;5129487;27;20047;-74
2023/03/05 04:12:01;;;;;;;7.05;1.60;;;;;;;;;;5129276;27;20043;-74
2023/03/05 04:14:32;;;;;;;3.28;1.58;;;;;;;;;;5129733;27;20070;-75
2023/03/05 04:17:02;;;;;;;3.85;1.60;;;;;;;;;;5129065;27;20047;-74
2023/03/05 04:19:33;;;;;;;3.97;1.73;;;;;;;;;;5128691;27;20048;-75
2023/03/05 04:22:02;;;;;;;2.45;1.85;;;;;;;;;;5128532;27;20043;-75
2023/03/05 04:24:34;;;;;;;3.40;2.25;;;;;;;;;;5129324;27;20490;-74
2023/03/05 04:27:06;;;;;;;3.03;1.70;;;;;;;;;;5128768;27;20106;-75
2023/03/05 04:29:37;;;;;;;2.70;1.95;;;;;;;;;;5129138;27;20054;-75
2023/03/05 04:32:08;;;;;;;3.50;2.25;;;;;;;;;;5130084;27;20054;-74
2023/03/05 04:34:38;;;;;;;6.18;1.90;;;;;;;;;;5128881;27;20046;-75
2023/03/05 04:37:09;;;;;;;6.63;2.10;;;;;;;;;;5129247;27;20043;-74
2023/03/05 04:39:41;;;;;;;5.82;2.10;;;;;;;;;;5129362;27;20383;-74
2023/03/05 04:42:12;;;;;;;3.42;1.85;;;;;;;;;;5129098;27;20061;-74
2023/03/05 04:44:41;;;;;;;3.53;2.85;;;;;;;;;;5128885;27;20482;-74
2023/03/05 04:47:12;;;;;;;4.43;3.00;;;;;;;;;;5127842;27;20057;-74
2023/03/05 04:49:44;;;;;;;4.43;2.50;;;;;;;;;;5127941;27;20405;-74
2023/03/05 04:52:14;;;;;;;6.63;3.03;;;;;;;;;;5128316;27;20057;-74
2023/03/05 04:54:45;;;;;;;6.63;2.95;;;;;;;;;;5127246;27;20054;-74
2023/03/05 04:57:16;;;;;;;6.40;2.88;;;;;;;;;;5128821;27;20493;-73
2023/03/05 04:59:48;;;;;;;9.30;2.75;;;;;;;;;;5128305;27;20043;-75
2023/03/05 05:02:18;;;;;;;4.60;3.08;;;;;;;;;;5127441;27;20047;-74
2023/03/05 05:04:51;;;;;;;3.00;2.63;;;;;;;;;;5128172;27;20043;-74
2023/03/05 05:07:21;;;;;;;6.10;2.92;;;;;;;;;;5128529;27;20501;-74
2023/03/05 05:09:53;;;;;;;5.95;2.63;;;;;;;;;;5128957;27;20047;-74
2023/03/05 05:12:23;;;;;;;4.15;3.00;;;;;;;;;;5126559;27;20046;-73
2023/03/05 05:14:53;;;;;;;8.90;2.80;;;;;;;;;;5127404;27;20054;-73
2023/03/05 05:17:23;;;;;;;6.97;2.83;;;;;;;;;;5127604;27;20043;-74
2023/03/05 05:19:55;;;;;;;6.63;3.05;;;;;;;;;;5128107;27;20046;-73
2023/03/05 05:22:29;;;;;;;10.60;3.40;;;;;;;;;;5128259;27;20042;-73
2023/03/05 05:25:01;;;;;;;9.70;3.08;;;;;;;;;;5127717;27;20058;-73
2023/03/05 05:27:31;;;;;;;7.68;3.42;;;;;;;;;;5127728;27;20469;-73
2023/03/05 05:30:03;;;;;;;8.32;3.13;;;;;;;;;;5127746;27;20051;-73
2023/03/05 05:32:34;;;;;;;9.27;2.72;;;;;;;;;;5127919;27;20051;-73
2023/03/05 05:35:05;;;;;;;7.70;3.08;;;;;;;;;;5127498;27;20051;-72
2023/03/05 05:37:35;;;;;;;11.45;3.33;;;;;;;;;;5128282;27;20051;-73
2023/03/05 05:40:07;;;;;;;8.55;3.10;;;;;;;;;;5127712;27;20418;-73
2023/03/05 05:42:38;;;;;;;9.20;2.88;;;;;;;;;;5127711;27;20049;-73
2023/03/05 05:45:10;;;;;;;8.88;3.47;;;;;;;;;;5127717;27;20043;-72
2023/03/05 05:47:40;;;;;;;6.40;3.65;;;;;;;;;;5127521;27;20042;-73
2023/03/05 05:50:11;;;;;;;10.05;3.92;;;;;;;;;;5127290;27;20101;-73
2023/03/05 05:52:42;;;;;;;7.35;4.75;;;;;;;;;;5125832;27;20074;-73
2023/03/05 05:55:13;;;;;;;9.63;4.47;;;;;;;;;;5127814;27;20050;-72
2023/03/05 05:57:43;;;;;;;8.95;4.82;;;;;;;;;;5127497;27;20073;-73
2023/03/05 06:00:14;;;;;;;7.00;4.85;;;;;;;;;;5128040;27;20055;-74
2023/03/05 06:02:45;;;;;;;10.25;5.07;;;;;;;;;;5127528;27;20506;-72
2023/03/05 06:05:16;;;;;;;6.53;4.13;;;;;;;;;;5126076;27;20062;-73
2023/03/05 06:07:45;;;;;;;11.10;4.18;;;;;;;;;;5127164;27;20520;-73
2023/03/05 06:10:16;;;;;;;11.02;4.13;;;;;;;;;;5127456;27;20051;-72
2023/03/05 06:12:47;;;;;;;7.95;3.60;;;;;;;;;;5127253;28;20429;-73
2023/03/05 06:15:19;;;;;;;8.75;4.35;;;;;;;;;;5124767;28;20540;-73
2023/03/05 06:17:49;;;;;;;8.73;3.35;;;;;;;;;;5127257;28;20050;-73
2023/03/05 06:20:19;;;;;;;8.35;3.53;;;;;;;;;;5126905;28;20379;-73
2023/03/05 06:22:49;;;;;;;7.25;3.28;;;;;;;;;;5124704;28;20047;-75
2023/03/05 06:25:20;;;;;;;10.38;3.53;;;;;;;;;;5128086;28;20039;-75
2023/03/05 06:27:50;;;;;;;4.57;3.50;;;;;;;;;;5126837;28;20043;-75
2023/03/05 06:30:21;;;;;;;7.57;4.13;;;;;;;;;;5127176;28;20423;-75
2023/03/05 06:32:51;;;;;;;7.47;4.05;;;;;;;;;;5127043;28;20043;-77
2023/03/05 06:35:23;;;;;;;5.35;3.65;;;;;;;;;;5127055;28;20485;-76
2023/03/05 06:37:53;;;;;;;8.32;4.22;;;;;;;;;;5126698;28;20050;-76
2023/03/05 06:40:23;;;;;;;5.75;3.42;;;;;;;;;;5126721;28;20057;-75
2023/03/05 06:42:53;;;;;;;5.80;2.58;;;;;;;;;;5127047;28;20077;-74
2023/03/05 06:45:24;;;;;;;4.38;2.72;;;;;;;;;;5128375;27;20047;-75
2023/03/05 06:47:55;;;;;;;5.82;2.70;;;;;;;;;;5131729;27;20512;-76
2023/03/05 06:50:25;;;;;;;12.20;2.42;;;;;;;;;;5130875;27;20043;-76
2023/03/05 06:52:58;;;;;;;3.90;2.03;;;;;;;;;;5131298;27;20065;-77
2023/03/05 06:55:28;;;;;;;8.82;2.30;;;;;;;;;;5131334;27;20058;-77
2023/03/05 06:57:59;;;;;;;6.60;1.85;;;;;;;;;;5131064;27;20054;-76
2023/03/05 07:00:29;;;;;;;13.32;2.08;;;;;;;;;;5130878;27;20039;-78
2023/03/05 07:03:00;;;;;;;4.00;2.17;;;;;;;;;;5130928;27;20513;-79
2023/03/05 07:05:29;;;;;;;5.80;2.33;;;;;;;;;;5130088;27;20405;-77
2023/03/05 07:08:03;;;;;;;15.70;2.47;;;;;;;;;;5130411;27;20046;-77
2023/03/05 07:10:38;;;;;;;12.73;2.80;;;;;;;;;;5130301;27;20043;-77
2023/03/05 07:13:10;;;;;;;11.82;2.22;;;;;;;;;;5131118;27;20047;-78
2023/03/05 07:15:42;;;;;;;8.20;2.50;;;;;;;;;;5131500;27;20054;-77
2023/03/05 07:18:14;;;;;;;5.38;2.13;;;;;;;;;;5130668;27;20047;-76
2023/03/05 07:20:45;;;;;;;4.40;2.70;;;;;;;;;;5130789;27;20039;-76
2023/03/05 07:23:15;;;;;;;7.63;2.22;;;;;;;;;;5130577;27;20053;-77
2023/03/05 07:25:45;;;;;;;1.55;1.45;;;;;;;;;;5130286;27;20043;-77
2023/03/05 07:28:15;;;;;;;2.28;1.63;;;;;;;;;;5130326;27;20046;-77
2023/03/05 07:30:53;;;;;;;5.63;2.17;;;;;;;;;;5130611;27;20783;-77
2023/03/05 07:33:26;;;;;;;2.88;1.90;;;;;;;;;;5128449;27;20047;-74
2023/03/05 07:35:56;;;;;;;2.85;1.40;;;;;;;;;;5128357;27;20050;-74
2023/03/05 07:38:27;;;;;;;7.53;1.60;;;;;;;;;;5129976;27;20425;-74
2023/03/05 07:41:01;;;;;;;4.20;0.93;;;;;;;;;;5129944;27;20051;-74
2023/03/05 07:43:33;;;;;;;5.93;0.70;;;;;;;;;;5130187;27;20050;-73
2023/03/05 07:46:13;;;;;;;7.68;0.77;;;;;;;;;;5130309;27;20062;-73
2023/03/05 07:48:43;;;;;;;6.85;0.85;;;;;;;;;;5129601;27;20401;-73
2023/03/05 07:51:15;;;;;;;7.40;0.80;;;;;;;;;;5129631;27;20047;-73
2023/03/05 07:53:48;;;;;;;4.38;0.90;;;;;;;;;;5129261;27;20051;-73
2023/03/05 07:56:30;;;;;;;5.72;0.77;;;;;;;;;;5129042;27;20109;-73
2023/03/05 07:59:10;;;;;;;7.85;1.05;;;;;;;;;;5129836;27;20039;-72
2023/03/05 08:01:43;;;;;;;9.13;0.80;;;;;;;;;;5129630;27;20035;-73
2023/03/05 08:04:12;;;;;;;11.02;1.00;;;;;;;;;;5129559;27;20576;-73
2023/03/05 08:06:45;;;;;;;5.03;1.02;;;;;;;;;;5128503;27;20047;-73
2023/03/05 08:09:17;;;;;;;5.30;0.90;;;;;;;;;;5129614;27;20035;-73
2023/03/05 08:11:48;;;;;;;7.05;0.90;;;;;;;;;;5129438;27;20047;-73
2023/03/05 08:14:18;;;;;;;7.70;1.52;;;;;;;;;;5129086;27;20047;-73
2023/03/05 08:16:52;;;;;;;8.65;1.13;;;;;;;;;;5129566;27;20039;-73
2023/03/05 08:19:22;;;;;;;3.28;0.82;;;;;;;;;;5129716;27;20513;-73
2023/03/05 08:21:53;;;;;;;6.03;0.90;;;;;;;;;;5129494;27;20425;-72
2023/03/05 08:24:28;;;;;;;10.15;0.90;;;;;;;;;;5129626;27;20051;-73
2023/03/05 08:26:58;;;;;;;8.55;0.85;;;;;;;;;;5128861;27;20052;-73
2023/03/05 08:29:29;;;;;;;8.80;0.82;;;;;;;;;;5129911;27;20051;-73
2023/03/05 08:32:00;;;;;;;9.57;1.23;;;;;;;;;;5129495;27;20054;-73
2023/03/05 08:34:30;;;;;;;12.82;0.93;;;;;;;;;;5129071;27;20050;-73
2023/03/05 08:37:01;;;;;;;6.22;0.90;;;;;;;;;;5129050;27;20043;-72
2023/03/05 08:39:33;;;;;;;8.75;0.90;;;;;;;;;;5128315;27;20058;-73
2023/03/05 08:42:04;;;;;;;10.95;1.13;;;;;;;;;;5127202;27;20054;-73
2023/03/05 08:44:36;;;;;;;5.25;0.77;;;;;;;;;;5128673;27;20043;-73
2023/03/05 08:47:06;;;;;;;10.25;0.80;;;;;;;;;;5127002;27;20051;-73
2023/03/05 08:49:37;;;;;;;4.85;0.77;;;;;;;;;;5128394;27;20491;-73
2023/03/05 08:52:09;;;;;;;9.57;0.73;;;;;;;;;;5128385;27;20409;-73
2023/03/05 08:54:41;;;;;;;12.32;1.10;;;;;;;;;;5127860;27;20062;-73
2023/03/05 08:57:11;;;;;;;14.85;0.93;;;;;;;;;;5128339;27;20043;-73
2023/03/05 08:59:41;;;;;;;5.93;1.13;;;;;;;;;;5128532;27;20047;-73
2023/03/05 09:02:14;;;;;;;13.43;0.90;;;;;;;;;;5128278;27;20043;-73
2023/03/05 09:04:45;;;;;;;6.53;1.00;;;;;;;;;;5128606;27;20406;-73
2023/03/05 09:07:14;;;;;;;13.35;1.02;;;;;;;;;;5128488;27;20089;-73
2023/03/05 09:09:46;;;;;;;17.45;1.33;;;;;;;;;;5127996;27;20066;-73
2023/03/05 09:12:16;;;;;;;11.80;0.93;;;;;;;;;;5128104;27;20497;-73
2023/03/05 09:14:46;;;;;;;12.95;1.20;;;;;;;;;;5128098;27;20050;-73
2023/03/05 09:17:17;;;;;;;7.95;0.90;;;;;;;;;;5128308;27;20047;-73
2023/03/05 09:19:46;;;;;;;15.60;1.13;;;;;;;;;;5128893;27;20047;-73
2023/03/05 09:22:17;;;;;;;10.95;1.00;;;;;;;;;;5128964;27;20520;-72
2023/03/05 09:24:47;;;;;;;6.47;0.90;;;;;;;;;;5128152;27;20047;-73
2023/03/05 09:27:18;;;;;;;14.52;1.02;;;;;;;;;;5128263;27;20497;-73
2023/03/05 09:29:49;;;;;;;6.75;0.88;;;;;;;;;;5128298;27;20536;-73
2023/03/05 09:32:19;;;;;;;8.25;0.95;;;;;;;;;;5127780;27;20051;-73
2023/03/05 09:34:49;;;;;;;7.82;0.90;;;;;;;;;;5127629;27;20042;-73
2023/03/05 09:37:19;;;;;;;4.65;0.68;;;;;;;;;;5127474;27;20043;-73
2023/03/05 09:52:31;;;;;;;12.60;1.00;;;;;;;;;;5146006;27;20341;-74
2023/03/05 09:55:10;;;;;;;7.15;0.90;;;;;;;;;;5145233;27;20047;-72
2023/03/05 09:57:48;;;;;;;9.30;0.85;;;;;;;;;;5145234;27;20047;-72
2023/03/05 10:00:38;;;;;;;12.77;1.00;;;;;;;;;;5143489;27;20070;-74
2023/03/05 10:03:41;;;;;;;12.77;1.58;;;;;;;;;;5145262;27;20046;-73
2023/03/05 10:06:30;;;;;;;12.45;1.25;;;;;;;;;;5141841;27;20062;-73
2023/03/05 10:09:09;;;;;;;11.10;1.35;;;;;;;;;;5145492;27;20061;-74
2023/03/05 10:12:08;;;;;;;5.75;1.00;;;;;;;;;;5145231;27;20054;-72
2023/03/05 10:14:40;;;;;;;6.70;0.90;;;;;;;;;;5137406;27;20058;-72
2023/03/05 10:17:27;;;;;;;13.75;1.45;;;;;;;;;;5144839;27;20051;-74
2023/03/05 10:19:57;;;;;;;6.00;1.40;;;;;;;;;;5145181;27;20039;-75
2023/03/05 10:22:49;;;;;;;8.00;1.20;;;;;;;;;;5144864;27;20419;-72
2023/03/05 10:25:47;;;;;;;7.00;1.35;;;;;;;;;;5131999;27;20443;-72
2023/03/05 10:28:53;;;;;;;5.40;0.90;;;;;;;;;;5144478;27;20043;-74
2023/03/05 10:31:49;;;;;;;8.90;1.08;;;;;;;;;;5144719;27;20054;-73
2023/03/05 10:34:35;;;;;;;7.40;1.33;;;;;;;;;;5114286;27;20055;-71
2023/03/05 10:37:39;;;;;;;5.80;1.15;;;;;;;;;;5144667;27;20047;-72
2023/03/05 10:40:34;;;;;;;9.70;1.77;;;;;;;;;;5144528;27;20070;-72
2023/03/05 10:43:18;;;;;;;9.68;0.90;;;;;;;;;;5144680;27;20043;-72
2023/03/05 10:45:56;;;;;;;10.50;1.95;;;;;;;;;;5143675;27;20050;-72
2023/03/05 10:48:44;;;;;;;3.63;1.08;;;;;;;;;;5144698;27;20051;-74
2023/03/05 10:51:33;;;;;;;4.80;1.02;;;;;;;;;;5142592;27;20078;-73
2023/03/05 10:54:29;;;;;;;5.32;0.90;;;;;;;;;;5129722;27;20043;-72
2023/03/05 10:57:24;;;;;;;6.97;1.23;;;;;;;;;;5130343;27;20389;-74
2023/03/05 11:00:05;;;;;;;7.90;1.00;;;;;;;;;;5130415;27;20062;-72
2023/03/05 11:03:10;;;;;;;8.98;1.48;;;;;;;;;;5130347;27;20386;-73
2023/03/05 11:05:48;;;;;;;7.28;1.30;;;;;;;;;;5130432;27;20046;-73
2023/03/05 11:08:24;;;;;;;8.75;1.30;;;;;;;;;;5130706;27;20112;-72
2023/03/05 11:11:22;;;;;;;11.57;1.20;;;;;;;;;;5128305;27;20054;-72
2023/03/05 11:14:02;;;;;;;10.07;1.25;;;;;;;;;;5128633;27;20144;-73
2023/03/05 11:16:44;;;;;;;11.57;1.55;;;;;;;;;;5129869;27;20044;-72
2023/03/05 11:19:15;;;;;;;5.72;0.98;;;;;;;;;;5129609;27;20042;-72
2023/03/05 11:22:03;;;;;;;4.78;1.08;;;;;;;;;;5129569;27;20058;-72
2023/03/05 11:24:35;;;;;;;6.20;1.27;;;;;;;;;;5129580;27;20513;-73
2023/03/05 11:27:31;;;;;;;5.63;1.80;;;;;;;;;;5129490;27;20394;-73
2023/03/05 11:30:03;;;;;;;6.07;1.48;;;;;;;;;;5129978;27;20043;-73
2023/03/05 11:32:34;;;;;;;9.05;2.13;;;;;;;;;;5130144;27;20512;-73
2023/03/05 11:35:29;;;;;;;9.40;1.55;;;;;;;;;;5129775;27;20047;-73
2023/03/05 11:38:05;;;;;;;15.40;2.13;;;;;;;;;;5129449;27;20078;-74
2023/03/05 11:40:36;;;;;;;8.88;2.22;;;;;;;;;;5129100;27;20054;-74
2023/03/05 11:43:13;;;;;;;14.82;2.13;;;;;;;;;;5128407;27;20513;-72
2023/03/05 11:45:46;;;;;;;12.73;2.10;;;;;;;;;;5129244;27;20055;-72
2023/03/05 11:48:25;;;;;;;7.57;2.03;;;;;;;;;;5129370;27;20058;-73
2023/03/05 11:50:59;;;;;;;7.28;2.50;;;;;;;;;;5128593;27;20059;-76
2023/03/05 11:53:35;;;;;;;8.07;2.47;;;;;;;;;;5129155;27;20374;-73
2023/03/05 11:56:12;;;;;;;9.13;2.20;;;;;;;;;;5129547;27;20586;-73
2023/03/05 11:58:47;;;;;;;11.05;2.10;;;;;;;;;;5129458;27;20500;-73
2023/03/05 12:01:21;;;;;;;9.65;1.70;;;;;;;;;;5128966;27;20054;-76
2023/03/05 12:03:54;;;;;;;5.65;1.45;;;;;;;;;;5128450;27;20062;-73
2023/03/05 12:06:58;;;;;;;6.50;1.83;;;;;;;;;;5129018;27;20041;-73
2023/03/05 12:09:32;;;;;;;5.35;1.35;;;;;;;;;;5121630;27;20054;-74
2023/03/05 12:12:24;;;;;;;6.60;2.28;;;;;;;;;;5128744;27;20066;-77
2023/03/05 12:15:24;;;;;;;8.25;1.67;;;;;;;;;;5128832;27;20043;-74
2023/03/05 12:18:04;;;;;;;10.65;1.55;;;;;;;;;;5127773;27;20054;-77
2023/03/05 12:20:52;;;;;;;5.53;1.25;;;;;;;;;;5128651;27;20043;-74
2023/03/05 12:23:25;;;;;;;11.50;1.70;;;;;;;;;;5129559;27;20051;-73
2023/03/05 12:25:59;;;;;;;9.68;1.40;;;;;;;;;;5128985;27;20046;-74
2023/03/05 12:28:36;;;;;;;4.68;1.33;;;;;;;;;;5122207;27;20054;-74
2023/03/05 12:31:26;;;;;;;8.52;1.15;;;;;;;;;;5108398;28;20043;-74
2023/03/05 12:33:56;;;;;;;8.18;1.55;;;;;;;;;;5105083;28;20054;-74
2023/03/05 12:36:36;;;;;;;5.55;1.40;;;;;;;;;;5105417;28;20052;-74
2023/03/05 12:39:48;;;;;;;3.97;1.13;;;;;;;;;;5106689;28;20538;-73
2023/03/05 12:42:30;;;;;;;3.40;1.20;;;;;;;;;;5105553;28;20047;-73
2023/03/05 12:45:28;;;;;;;7.47;1.45;;;;;;;;;;5107631;28;20048;-75
2023/03/05 12:47:59;;;;;;;6.95;1.50;;;;;;;;;;5106469;28;20052;-75
2023/03/05 12:50:32;;;;;;;7.32;1.48;;;;;;;;;;5105890;28;20063;-78
2023/03/05 12:53:11;;;;;;;6.78;1.40;;;;;;;;;;5107379;28;20050;-74
2023/03/05 12:55:44;;;;;;;10.43;1.30;;;;;;;;;;5105821;28;20062;-75
2023/03/05 12:58:39;;;;;;;4.22;1.40;;;;;;;;;;5107706;28;20050;-75
2023/03/05 13:01:35;;;;;;;7.10;1.20;;;;;;;;;;5106846;28;20047;-76
2023/03/05 13:04:13;;;;;;;4.25;1.17;;;;;;;;;;5106870;28;20058;-74
2023/03/05 13:06:45;;;;;;;4.82;1.25;;;;;;;;;;5106070;28;20044;-74
2023/03/05 13:09:27;;;;;;;4.72;1.30;;;;;;;;;;5107186;28;20059;-74
2023/03/05 13:12:01;;;;;;;9.52;1.27;;;;;;;;;;5107337;28;20046;-74
2023/03/05 13:14:41;;;;;;;5.10;1.73;;;;;;;;;;5107286;28;20043;-74
2023/03/05 13:17:31;;;;;;;3.90;0.90;;;;;;;;;;5107153;28;20493;-73
2023/03/05 13:20:25;;;;;;;6.07;1.15;;;;;;;;;;5106519;28;20425;-73
2023/03/05 13:23:14;;;;;;;3.72;1.00;;;;;;;;;;5108805;27;20529;-75
2023/03/05 13:25:55;;;;;;;5.32;1.25;;;;;;;;;;5127547;27;20492;-74
2023/03/05 13:28:32;;;;;;;4.75;1.00;;;;;;;;;;5127127;27;20509;-76
2023/03/05 13:31:17;;;;;;;5.38;1.00;;;;;;;;;;5126459;27;20047;-77
2023/03/05 13:33:57;;;;;;;9.30;2.63;;;;;;;;;;5123226;27;20448;-74
2023/03/05 13:36:28;;;;;;;3.33;0.88;;;;;;;;;;5123341;27;20058;-74
2023/03/05 13:38:59;;;;;;;12.18;1.17;;;;;;;;;;5125029;28;20039;-74
2023/03/05 13:41:30;;;;;;;6.32;1.33;;;;;;;;;;5125744;28;20047;-74
2023/03/05 13:44:03;;;;;;;2.60;0.80;;;;;;;;;;5125448;28;20043;-73
2023/03/05 13:46:37;;;;;;;2.63;0.70;;;;;;;;;;5125481;28;20039;-73
2023/03/05 13:49:21;;;;;;;3.25;0.90;;;;;;;;;;5125979;28;20047;-74
2023/03/05 13:51:54;;;;;;;3.60;0.70;;;;;;;;;;5127523;28;20448;-76
2023/03/05 13:54:26;;;;;;;3.03;0.60;;;;;;;;;;5127091;28;20058;-77
2023/03/05 13:56:59;;;;;;;4.43;0.70;;;;;;;;;;5126409;28;20501;-77
2023/03/05 13:59:32;;;;;;;7.20;0.88;;;;;;;;;;5126459;28;20051;-74
2023/03/05 14:02:19;;;;;;;5.97;1.08;;;;;;;;;;5126424;28;20054;-74
2023/03/05 14:04:51;;;;;;;4.28;0.95;;;;;;;;;;5125714;28;20050;-74
2023/03/05 14:07:29;;;;;;;4.57;0.80;;;;;;;;;;5127461;28;20054;-75
2023/03/05 14:10:02;;;;;;;3.65;1.02;;;;;;;;;;5127440;28;20047;-73
2023/03/05 14:12:41;;;;;;;3.35;1.10;;;;;;;;;;5127217;28;20058;-75
2023/03/05 14:15:25;;;;;;;2.85;1.30;;;;;;;;;;5126655;28;20121;-74
2023/03/05 14:18:17;;;;;;;5.70;1.08;;;;;;;;;;5125456;28;20050;-75
2023/03/05 14:21:20;;;;;;;2.15;0.88;;;;;;;;;;5126829;28;20090;-78
2023/03/05 14:23:55;;;;;;;4.70;0.98;;;;;;;;;;5085195;27;20055;-75
2023/03/05 14:26:28;;;;;;;1.92;0.75;;;;;;;;;;5127119;27;20612;-79
2023/03/05 14:29:05;;;;;;;4.70;2.38;;;;;;;;;;5131501;27;20525;-77
2023/03/05 14:32:07;;;;;;;4.13;0.80;;;;;;;;;;5130073;27;20046;-74
2023/03/05 14:34:41;;;;;;;4.32;1.58;;;;;;;;;;5130497;27;20428;-76
2023/03/05 14:37:23;;;;;;;3.15;1.30;;;;;;;;;;5127707;27;20055;-75
2023/03/05 14:40:04;;;;;;;3.08;1.02;;;;;;;;;;5129876;27;20630;-71
2023/03/05 14:42:50;;;;;;;4.55;1.00;;;;;;;;;;5130866;27;20507;-75
2023/03/05 14:45:23;;;;;;;5.13;1.30;;;;;;;;;;5130238;27;20042;-74
2023/03/05 14:47:57;;;;;;;4.35;1.30;;;;;;;;;;5131801;27;20058;-72
2023/03/05 14:50:35;;;;;;;4.85;0.93;;;;;;;;;;5131923;27;20059;-78
2023/03/05 14:53:28;;;;;;;2.42;0.77;;;;;;;;;;5132133;27;20055;-73
2023/03/05 14:55:58;;;;;;;2.92;0.80;;;;;;;;;;5132531;27;20049;-72
2023/03/05 14:58:31;;;;;;;3.63;0.77;;;;;;;;;;5132733;27;20054;-77
2023/03/05 15:01:01;;;;;;;5.20;1.30;;;;;;;;;;5132859;27;20051;-78
2023/03/05 15:03:33;;;;;;;6.28;1.17;;;;;;;;;;5132033;27;20047;-74
2023/03/05 15:06:03;;;;;;;2.63;0.95;;;;;;;;;;5129415;27;20047;-76
2023/03/05 15:08:35;;;;;;;1.33;0.68;;;;;;;;;;5132079;27;20046;-76
2023/03/05 15:11:05;;;;;;;3.72;0.90;;;;;;;;;;5133573;27;20043;-77
2023/03/05 15:13:39;;;;;;;3.70;1.10;;;;;;;;;;5135060;27;20043;-75
2023/03/05 15:16:14;;;;;;;3.80;0.70;;;;;;;;;;5120452;27;20039;-74
2023/03/05 15:18:45;;;;;;;3.97;0.77;;;;;;;;;;5113747;28;20051;-74
2023/03/05 15:21:16;;;;;;;2.40;0.80;;;;;;;;;;5113309;28;20043;-76
2023/03/05 15:23:46;;;;;;;2.90;0.75;;;;;;;;;;5110898;28;20051;-76
2023/03/05 15:26:17;;;;;;;5.40;0.98;;;;;;;;;;5111984;28;20047;-76
2023/03/05 15:28:47;;;;;;;4.00;0.82;;;;;;;;;;5108646;28;20043;-76
2023/03/05 15:31:17;;;;;;;4.28;0.93;;;;;;;;;;5111280;28;20055;-76
2023/03/05 15:33:47;;;;;;;2.15;0.80;;;;;;;;;;5111808;28;20062;-77
2023/03/05 15:36:18;;;;;;;2.45;1.00;;;;;;;;;;5113414;28;20047;-74
2023/03/05 15:38:48;;;;;;;2.70;0.70;;;;;;;;;;5112883;28;20410;-75